Time;durP1;ratioP1;P1;durP2;ratioP2;P2;SDS_P1;SDS_P2;PMS_P1;PMS_P2;Temp;Humidity;BMP_temperature;BMP_pressure;BME280_temperature;BME280_humidity;BME280_pressure;Samples;Min_cycle;Max_cycle;Signal;HPM_P1;HPM_P2
2022/07/11 00:00:13;;;;;;;4.13;2.00;;;15.70;99.90;;;;;;5023402;28;20040;-71
2022/07/11 00:02:42;;;;;;;5.97;2.13;;;15.70;99.90;;;;;;5042024;28;20040;-71
2022/07/11 00:05:09;;;;;;;4.40;2.05;;;15.70;99.90;;;;;;5025102;27;20052;-72
2022/07/11 00:07:35;;;;;;;5.63;2.15;;;15.70;99.90;;;;;;5041966;27;20041;-71
2022/07/11 00:10:03;;;;;;;5.10;2.10;;;15.70;99.90;;;;;;5026293;28;20041;-71
2022/07/11 00:12:29;;;;;;;4.38;2.10;;;15.60;99.90;;;;;;5050169;27;20033;-71
2022/07/11 00:14:55;;;;;;;4.88;1.90;;;15.70;99.90;;;;;;5025693;28;20037;-71
2022/07/11 00:17:20;;;;;;;5.40;1.95;;;15.70;99.90;;;;;;5020710;27;20048;-71
2022/07/11 00:19:46;;;;;;;3.25;2.00;;;15.70;99.90;;;;;;5025726;27;20052;-71
2022/07/11 00:22:12;;;;;;;4.35;2.28;;;15.70;99.90;;;;;;5025545;28;20064;-71
2022/07/11 00:24:38;;;;;;;7.35;3.35;;;15.60;99.90;;;;;;5041816;27;20044;-71
2022/07/11 00:27:04;;;;;;;7.90;3.15;;;15.60;99.90;;;;;;5049349;27;20044;-70
2022/07/11 00:29:30;;;;;;;5.90;2.92;;;15.60;99.90;;;;;;5058064;28;21666;-71
2022/07/11 00:31:57;;;;;;;8.23;3.10;;;15.60;99.90;;;;;;5050978;27;20173;-71
2022/07/11 00:34:23;;;;;;;6.22;3.03;;;15.60;99.90;;;;;;5023451;27;20502;-71
2022/07/11 00:36:49;;;;;;;6.35;3.00;;;15.60;99.90;;;;;;5008434;28;20045;-71
2022/07/11 00:39:15;;;;;;;6.00;2.60;;;15.60;99.90;;;;;;5023823;28;20044;-71
2022/07/11 00:41:41;;;;;;;4.57;2.78;;;15.60;99.90;;;;;;5041498;27;20114;-71
2022/07/11 00:44:06;;;;;;;7.00;3.33;;;15.60;99.90;;;;;;5026327;28;20048;-70
2022/07/11 00:46:32;;;;;;;7.00;2.60;;;15.50;99.90;;;;;;5012803;28;20053;-71
2022/07/11 00:48:59;;;;;;;4.55;2.55;;;15.60;99.90;;;;;;5023251;28;20060;-71
2022/07/11 00:51:26;;;;;;;4.97;2.45;;;15.50;99.90;;;;;;5024430;27;20040;-71
2022/07/11 00:53:54;;;;;;;5.88;2.72;;;15.50;99.90;;;;;;5023571;28;20126;-71
2022/07/11 00:56:25;;;;;;;5.75;2.63;;;15.50;99.90;;;;;;5042317;28;20236;-70
2022/07/11 00:58:51;;;;;;;6.15;3.10;;;15.50;99.90;;;;;;5024175;27;20520;-71
2022/07/11 01:01:18;;;;;;;5.18;2.72;;;15.50;99.90;;;;;;5044052;27;20052;-71
2022/07/11 01:03:45;;;;;;;6.32;2.88;;;15.50;99.90;;;;;;5046087;27;20037;-70
2022/07/11 01:06:11;;;;;;;7.65;3.10;;;15.60;99.90;;;;;;5023764;28;20048;-70
2022/07/11 01:08:38;;;;;;;6.53;2.83;;;15.60;99.90;;;;;;5041957;27;20041;-70
2022/07/11 01:11:05;;;;;;;5.38;3.00;;;15.50;99.90;;;;;;5007825;28;20037;-70
2022/07/11 01:13:31;;;;;;;7.78;3.53;;;15.40;99.90;;;;;;5040231;27;20040;-71
2022/07/11 01:16:26;;;;;;;7.57;3.17;;;15.50;99.90;;;;;;5022235;28;20417;-70
2022/07/11 01:18:54;;;;;;;8.68;3.72;;;15.40;99.90;;;;;;5022910;28;20502;-70
2022/07/11 01:21:24;;;;;;;9.48;3.45;;;15.50;99.90;;;;;;5060432;27;20066;-70
2022/07/11 01:23:52;;;;;;;10.82;4.13;;;15.40;99.90;;;;;;5026121;27;20394;-70
2022/07/11 01:26:20;;;;;;;9.60;3.17;;;15.50;99.90;;;;;;5022647;28;20041;-70
2022/07/11 01:28:45;;;;;;;7.57;3.30;;;15.40;99.90;;;;;;5067975;27;20076;-70
2022/07/11 01:31:14;;;;;;;6.78;3.38;;;15.50;99.90;;;;;;5046601;27;20134;-70
2022/07/11 01:33:41;;;;;;;6.25;3.15;;;15.50;99.90;;;;;;5044049;27;20067;-70
2022/07/11 01:36:07;;;;;;;7.82;3.78;;;15.40;99.90;;;;;;5032516;28;20040;-70
2022/07/11 01:38:33;;;;;;;5.88;3.20;;;15.40;99.90;;;;;;5032928;28;20066;-70
2022/07/11 01:40:58;;;;;;;9.18;3.42;;;15.40;99.90;;;;;;5031475;27;20351;-70
2022/07/11 01:43:25;;;;;;;10.98;3.80;;;15.50;99.90;;;;;;5012585;28;20048;-70
2022/07/11 01:45:52;;;;;;;7.90;3.30;;;15.40;99.90;;;;;;5023974;28;20097;-70
2022/07/11 01:48:18;;;;;;;7.88;3.28;;;15.40;99.90;;;;;;5024751;28;20124;-70
2022/07/11 01:50:44;;;;;;;6.55;2.88;;;15.40;99.90;;;;;;5023558;28;20045;-70
2022/07/11 01:53:09;;;;;;;9.43;3.50;;;15.40;99.90;;;;;;5033467;28;20038;-70
2022/07/11 01:55:35;;;;;;;7.78;3.15;;;15.40;99.90;;;;;;5041318;28;20125;-70
2022/07/11 01:58:01;;;;;;;7.38;3.20;;;15.40;99.90;;;;;;5027999;28;20053;-70
2022/07/11 02:00:27;;;;;;;7.00;3.13;;;15.40;99.90;;;;;;5036307;28;20082;-70
2022/07/11 02:02:53;;;;;;;8.48;3.33;;;15.40;99.90;;;;;;5032847;28;20504;-70
2022/07/11 02:05:19;;;;;;;8.40;3.40;;;15.40;99.90;;;;;;5024769;28;20120;-71
2022/07/11 02:10:29;;;;;;;8.82;3.50;;;15.40;99.90;;;;;;5070018;27;20114;-70
2022/07/11 02:12:58;;;;;;;8.05;2.97;;;15.40;99.90;;;;;;5018366;28;20040;-71
2022/07/11 02:15:27;;;;;;;7.80;3.42;;;15.40;99.90;;;;;;5022647;28;20052;-71
2022/07/11 02:17:53;;;;;;;6.60;3.63;;;15.40;99.90;;;;;;5040627;28;20048;-70
2022/07/11 02:20:20;;;;;;;7.70;3.60;;;15.40;99.90;;;;;;5025734;27;20041;-71
2022/07/11 02:22:46;;;;;;;9.50;3.33;;;15.30;99.90;;;;;;5021896;28;20052;-70
2022/07/11 02:25:12;;;;;;;6.82;3.17;;;15.30;99.90;;;;;;5026047;27;20037;-70
2022/07/11 02:27:38;;;;;;;7.10;3.25;;;15.40;99.90;;;;;;5028777;27;20051;-70
2022/07/11 02:30:04;;;;;;;7.53;3.58;;;15.40;99.90;;;;;;5044090;28;20041;-70
2022/07/11 02:32:30;;;;;;;8.02;3.17;;;15.40;99.90;;;;;;5037515;27;20064;-70
2022/07/11 02:34:56;;;;;;;10.98;3.90;;;15.30;99.90;;;;;;5043907;28;20382;-70
2022/07/11 02:37:22;;;;;;;7.25;2.92;;;15.30;99.90;;;;;;5014511;28;20049;-70
2022/07/11 02:39:50;;;;;;;6.60;3.47;;;15.40;99.90;;;;;;5025985;27;20037;-70
2022/07/11 02:42:16;;;;;;;7.32;3.30;;;15.30;99.90;;;;;;5015872;28;20081;-71
2022/07/11 02:44:42;;;;;;;7.95;3.47;;;15.30;99.90;;;;;;5026497;28;20557;-70
2022/07/11 02:47:07;;;;;;;9.43;3.60;;;15.30;99.90;;;;;;5041594;28;20049;-70
2022/07/11 02:49:33;;;;;;;11.52;3.45;;;15.40;99.90;;;;;;5028804;28;20045;-70
2022/07/11 02:51:59;;;;;;;9.63;3.70;;;15.30;99.90;;;;;;5028913;27;20076;-70
2022/07/11 02:54:25;;;;;;;8.18;3.78;;;15.30;99.90;;;;;;5037615;27;20144;-70
2022/07/11 02:56:50;;;;;;;5.93;3.05;;;15.30;99.90;;;;;;5044295;28;20525;-70
2022/07/11 02:59:16;;;;;;;7.30;3.30;;;15.30;99.90;;;;;;5032828;27;20036;-70
2022/07/11 03:01:42;;;;;;;11.10;3.95;;;15.40;99.90;;;;;;5043162;28;20365;-70
2022/07/11 03:04:08;;;;;;;8.40;3.67;;;15.40;99.90;;;;;;5043291;28;20037;-70
2022/07/11 03:06:34;;;;;;;9.93;3.63;;;15.30;99.90;;;;;;5012397;28;20044;-70
2022/07/11 03:09:00;;;;;;;8.15;3.92;;;15.40;99.90;;;;;;5033790;27;20049;-70
2022/07/11 03:11:26;;;;;;;6.93;3.42;;;15.40;99.90;;;;;;5021341;27;20413;-70
2022/07/11 03:13:52;;;;;;;7.32;2.92;;;15.30;99.90;;;;;;5016053;28;20515;-70
2022/07/11 03:16:18;;;;;;;4.68;2.50;;;15.30;99.90;;;;;;5042635;28;20453;-70
2022/07/11 03:18:43;;;;;;;6.30;3.00;;;15.40;99.90;;;;;;5028946;28;20076;-70
2022/07/11 03:21:09;;;;;;;9.45;2.67;;;15.30;99.90;;;;;;5031517;27;20574;-70
2022/07/11 03:23:35;;;;;;;7.00;2.90;;;15.40;99.90;;;;;;5120835;27;20067;-70
2022/07/11 03:26:01;;;;;;;5.03;2.55;;;15.40;99.90;;;;;;5023466;28;20072;-70
2022/07/11 03:28:26;;;;;;;3.97;2.08;;;15.40;99.90;;;;;;5013447;28;20051;-70
2022/07/11 03:30:53;;;;;;;7.63;2.10;;;15.40;99.90;;;;;;5027248;27;20052;-70
2022/07/11 03:33:18;;;;;;;6.50;2.17;;;15.40;99.90;;;;;;5047096;27;20102;-70
2022/07/11 03:35:44;;;;;;;4.95;2.00;;;15.40;99.90;;;;;;5029530;27;20041;-70
2022/07/11 03:38:11;;;;;;;7.65;2.40;;;15.30;99.90;;;;;;5033380;27;20045;-70
2022/07/11 03:40:37;;;;;;;4.40;1.60;;;15.40;99.90;;;;;;5043522;28;20124;-71
2022/07/11 03:43:03;;;;;;;7.72;1.95;;;15.30;99.90;;;;;;5067291;27;20396;-70
2022/07/11 03:45:28;;;;;;;5.13;1.90;;;15.40;99.90;;;;;;5027609;27;20057;-70
2022/07/11 03:47:54;;;;;;;4.30;1.70;;;15.40;99.90;;;;;;5024827;28;20033;-70
2022/07/11 03:50:20;;;;;;;4.93;1.73;;;15.40;99.90;;;;;;5029821;27;20411;-71
2022/07/11 03:52:46;;;;;;;4.85;2.05;;;15.40;99.90;;;;;;5042881;28;20041;-70
2022/07/11 03:55:12;;;;;;;4.25;1.63;;;15.30;99.90;;;;;;5026394;28;20029;-70
2022/07/11 03:57:38;;;;;;;3.85;2.05;;;15.40;99.90;;;;;;5009265;28;20470;-70
2022/07/11 04:00:06;;;;;;;5.47;1.77;;;15.40;99.90;;;;;;5010725;28;20076;-70
2022/07/11 04:02:32;;;;;;;3.90;1.67;;;15.40;99.90;;;;;;5029321;27;20064;-70
2022/07/11 04:04:58;;;;;;;4.63;1.90;;;15.40;99.90;;;;;;5043061;28;20283;-71
2022/07/11 04:07:24;;;;;;;6.65;1.90;;;15.40;99.90;;;;;;5042921;28;20052;-70
2022/07/11 04:09:49;;;;;;;4.60;1.70;;;15.40;99.90;;;;;;5041633;27;20047;-71
2022/07/11 04:12:17;;;;;;;3.85;1.80;;;15.30;99.90;;;;;;5004603;28;20141;-70
2022/07/11 04:14:44;;;;;;;5.03;2.05;;;15.40;99.90;;;;;;5042517;28;20465;-71
2022/07/11 04:17:10;;;;;;;5.95;1.85;;;15.40;99.90;;;;;;5022960;27;20075;-70
2022/07/11 04:19:36;;;;;;;6.68;2.20;;;15.40;99.90;;;;;;5043124;27;20105;-70
2022/07/11 04:22:01;;;;;;;5.50;1.80;;;15.40;99.90;;;;;;5028038;28;20477;-71
2022/07/11 04:24:27;;;;;;;7.90;1.77;;;15.40;99.90;;;;;;5016212;28;20056;-71
2022/07/11 04:26:53;;;;;;;5.45;1.65;;;15.40;99.90;;;;;;5026386;27;20090;-70
2022/07/11 04:29:18;;;;;;;3.83;1.60;;;15.40;99.90;;;;;;5034142;28;20051;-70
2022/07/11 04:31:44;;;;;;;4.38;1.50;;;15.40;99.90;;;;;;5027877;27;20037;-70
2022/07/11 04:34:10;;;;;;;5.20;1.70;;;15.40;99.90;;;;;;5022118;28;20420;-70
2022/07/11 04:36:36;;;;;;;5.78;1.50;;;15.40;99.90;;;;;;5040035;27;20043;-71
2022/07/11 04:39:02;;;;;;;4.10;1.50;;;15.40;99.90;;;;;;5017324;28;20045;-70
2022/07/11 04:41:28;;;;;;;4.00;1.20;;;15.40;99.90;;;;;;5042938;27;20041;-70
2022/07/11 04:43:54;;;;;;;4.65;1.35;;;15.40;99.90;;;;;;5013741;27;20045;-77
2022/07/11 04:46:20;;;;;;;4.32;1.55;;;15.50;99.90;;;;;;5023184;27;20052;-77
2022/07/11 04:48:45;;;;;;;4.90;1.65;;;15.50;99.90;;;;;;5025813;27;20076;-77
2022/07/11 04:51:11;;;;;;;4.45;1.30;;;15.50;99.90;;;;;;5049715;27;20691;-77
2022/07/11 04:53:37;;;;;;;4.15;1.55;;;15.60;99.90;;;;;;5051657;27;20469;-77
2022/07/11 04:56:03;;;;;;;2.20;1.08;;;15.50;99.90;;;;;;5021497;27;21285;-77
2022/07/11 04:58:32;;;;;;;4.78;1.25;;;15.60;99.90;;;;;;5025883;27;20049;-77
2022/07/11 05:00:58;;;;;;;3.17;1.48;;;15.50;99.90;;;;;;5046548;27;20105;-77
2022/07/11 05:03:24;;;;;;;3.92;1.50;;;15.60;99.90;;;;;;5027583;27;20052;-77
2022/07/11 05:05:50;;;;;;;2.78;1.30;;;15.60;99.90;;;;;;5015874;27;20048;-77
2022/07/11 05:08:16;;;;;;;3.97;1.50;;;15.60;99.90;;;;;;5034424;27;20032;-77
2022/07/11 05:10:42;;;;;;;4.88;1.70;;;15.60;99.90;;;;;;5051140;27;20268;-77
2022/07/11 05:13:07;;;;;;;3.40;1.40;;;15.60;99.90;;;;;;5053717;27;21293;-76
2022/07/11 05:15:33;;;;;;;5.07;1.42;;;15.60;99.90;;;;;;5031718;27;20089;-76
2022/07/11 05:17:59;;;;;;;6.50;1.50;;;15.70;99.90;;;;;;5095508;27;21148;-76
2022/07/11 05:20:24;;;;;;;5.72;1.42;;;15.70;99.90;;;;;;5026324;27;20133;-75
2022/07/11 05:22:50;;;;;;;5.30;1.48;;;15.70;99.90;;;;;;5000537;27;20496;-76
2022/07/11 05:25:16;;;;;;;3.97;1.40;;;15.70;99.90;;;;;;5022361;28;20041;-76
2022/07/11 05:27:42;;;;;;;2.95;1.10;;;15.70;99.90;;;;;;5056115;27;20153;-77
2022/07/11 05:30:08;;;;;;;3.22;1.30;;;15.70;99.90;;;;;;5007776;27;20574;-77
2022/07/11 05:32:34;;;;;;;2.92;1.23;;;15.70;99.90;;;;;;5016280;27;20037;-77
2022/07/11 05:35:02;;;;;;;3.13;1.25;;;15.70;99.90;;;;;;5024321;28;20045;-77
2022/07/11 05:37:28;;;;;;;4.07;1.50;;;15.70;99.90;;;;;;5026593;28;20063;-77
2022/07/11 05:39:53;;;;;;;3.75;1.35;;;15.80;99.90;;;;;;5027049;27;20040;-77
2022/07/11 05:42:19;;;;;;;3.97;1.50;;;15.80;99.90;;;;;;5057008;27;20180;-77
2022/07/11 05:44:45;;;;;;;3.30;1.23;;;15.80;99.90;;;;;;5027682;28;20049;-76
2022/07/11 05:47:11;;;;;;;4.68;1.38;;;15.90;99.90;;;;;;5047065;27;20070;-77
2022/07/11 05:49:37;;;;;;;5.05;2.22;;;15.90;99.90;;;;;;5048078;27;20523;-76
2022/07/11 05:52:02;;;;;;;3.03;1.10;;;15.90;99.90;;;;;;5035436;28;20053;-77
2022/07/11 05:54:28;;;;;;;1.88;1.00;;;15.90;99.90;;;;;;5040496;28;20033;-75
2022/07/11 05:56:54;;;;;;;3.08;1.00;;;15.90;99.90;;;;;;5025077;27;20029;-77
2022/07/11 05:59:21;;;;;;;4.88;1.30;;;16.00;99.90;;;;;;5036701;27;20044;-77
2022/07/11 06:01:47;;;;;;;5.38;1.30;;;16.00;99.90;;;;;;5047582;27;20065;-76
2022/07/11 06:04:13;;;;;;;4.05;1.10;;;16.00;99.90;;;;;;5098970;27;20396;-76
2022/07/11 06:06:40;;;;;;;2.25;1.02;;;16.10;99.90;;;;;;5014412;28;20131;-77
2022/07/11 06:09:05;;;;;;;5.53;0.90;;;16.20;99.90;;;;;;5028589;27;20064;-76
2022/07/11 06:11:31;;;;;;;1.80;0.90;;;16.10;99.90;;;;;;5010161;28;20045;-76
2022/07/11 06:13:57;;;;;;;5.68;0.77;;;16.20;99.90;;;;;;5043581;27;20092;-76
2022/07/11 06:16:23;;;;;;;1.63;0.77;;;16.20;99.90;;;;;;5028868;27;20109;-76
2022/07/11 06:18:50;;;;;;;4.63;0.90;;;16.20;99.90;;;;;;5028147;27;21086;-76
2022/07/11 06:21:16;;;;;;;1.73;0.80;;;16.30;99.90;;;;;;5041486;27;20133;-75
2022/07/11 06:23:42;;;;;;;2.05;0.90;;;16.30;99.90;;;;;;5042682;27;20590;-76
2022/07/11 06:26:11;;;;;;;2.47;0.90;;;16.30;99.90;;;;;;5025591;27;20045;-75
2022/07/11 06:28:38;;;;;;;0.85;0.50;;;16.30;99.90;;;;;;5028243;27;20046;-76
2022/07/11 06:31:04;;;;;;;2.45;0.80;;;16.30;99.90;;;;;;5038514;27;20045;-76
2022/07/11 06:33:30;;;;;;;0.90;0.32;;;16.30;99.90;;;;;;5020647;28;20066;-75
2022/07/11 06:35:55;;;;;;;1.58;0.47;;;16.40;99.90;;;;;;5006125;28;20048;-76
2022/07/11 06:38:21;;;;;;;1.15;0.50;;;16.40;99.90;;;;;;5040370;27;20045;-76
2022/07/11 06:40:47;;;;;;;0.93;0.30;;;16.40;99.90;;;;;;5058523;27;20079;-76
2022/07/11 06:43:13;;;;;;;1.42;0.40;;;16.50;99.90;;;;;;5041236;27;20045;-76
2022/07/11 06:45:39;;;;;;;1.50;0.50;;;16.50;99.90;;;;;;5033934;27;20101;-75
2022/07/11 06:48:06;;;;;;;1.38;0.43;;;16.60;99.90;;;;;;5008666;28;20064;-75
2022/07/11 06:50:32;;;;;;;1.98;0.80;;;16.60;99.90;;;;;;5056464;27;20405;-75
2022/07/11 06:52:59;;;;;;;2.65;0.60;;;16.60;99.90;;;;;;5014574;27;20048;-74
2022/07/11 06:55:25;;;;;;;2.45;0.68;;;16.70;99.90;;;;;;5019914;28;20041;-76
2022/07/11 06:57:50;;;;;;;4.75;0.68;;;16.70;99.90;;;;;;5040462;27;20043;-75
2022/07/11 07:00:17;;;;;;;4.47;0.88;;;16.80;99.90;;;;;;5019419;27;20045;-75
2022/07/11 07:02:46;;;;;;;4.72;0.95;;;16.70;99.90;;;;;;5004103;28;20057;-75
2022/07/11 07:05:12;;;;;;;2.65;0.80;;;16.70;99.90;;;;;;5052752;27;20093;-76
2022/07/11 07:07:41;;;;;;;2.97;1.00;;;16.70;99.90;;;;;;5043181;27;20037;-74
2022/07/11 07:10:07;;;;;;;4.53;0.98;;;16.70;99.90;;;;;;5019648;28;20057;-75
2022/07/11 07:12:37;;;;;;;3.88;1.33;;;16.80;99.90;;;;;;5035155;27;20045;-74
2022/07/11 07:15:04;;;;;;;3.23;1.13;;;16.90;99.90;;;;;;5040288;27;20048;-75
2022/07/11 07:17:30;;;;;;;6.90;1.08;;;17.10;99.90;;;;;;5025944;27;20423;-75
2022/07/11 07:19:55;;;;;;;3.72;0.90;;;17.20;99.90;;;;;;5011702;27;20545;-75
2022/07/11 07:22:21;;;;;;;3.38;1.10;;;17.40;99.90;;;;;;5015563;27;20099;-74
2022/07/11 07:24:47;;;;;;;5.05;1.30;;;17.50;99.90;;;;;;5022267;27;20863;-74
2022/07/11 07:27:12;;;;;;;4.40;1.20;;;17.70;99.90;;;;;;5011363;27;20523;-76
2022/07/11 07:29:39;;;;;;;2.65;0.90;;;17.70;99.90;;;;;;5029391;27;20041;-75
2022/07/11 07:32:05;;;;;;;4.40;0.90;;;17.80;99.90;;;;;;5036008;27;20044;-76
2022/07/11 07:34:32;;;;;;;2.53;0.80;;;17.80;99.90;;;;;;5019786;27;20496;-76
2022/07/11 07:36:58;;;;;;;1.92;0.70;;;17.80;99.90;;;;;;5058229;27;20116;-77
2022/07/11 07:39:23;;;;;;;2.97;0.70;;;17.90;99.90;;;;;;5053600;27;21219;-77
2022/07/11 07:41:49;;;;;;;3.50;0.80;;;18.00;99.90;;;;;;5013848;27;20578;-76
2022/07/11 07:44:15;;;;;;;1.77;0.60;;;18.10;99.90;;;;;;5000506;28;20405;-76
2022/07/11 07:46:41;;;;;;;0.80;0.45;;;18.10;99.90;;;;;;5011758;27;20089;-76
2022/07/11 07:49:06;;;;;;;1.20;0.40;;;18.00;99.90;;;;;;5013999;28;20051;-76
2022/07/11 07:51:33;;;;;;;1.15;0.50;;;18.10;99.90;;;;;;5029154;27;20398;-76
2022/07/11 07:53:58;;;;;;;1.08;0.40;;;18.30;99.90;;;;;;5013807;27;20245;-76
2022/07/11 07:56:24;;;;;;;2.05;0.50;;;18.50;99.90;;;;;;5015925;28;20064;-75
2022/07/11 07:58:51;;;;;;;2.22;0.40;;;18.70;99.90;;;;;;5013734;28;20402;-76
2022/07/11 08:01:36;;;;;;;1.80;0.40;;;19.00;99.90;;;;;;5032735;27;20546;-76
2022/07/11 08:04:03;;;;;;;0.93;0.40;;;19.30;99.90;;;;;;4999804;27;20045;-76
2022/07/11 08:06:29;;;;;;;1.08;0.38;;;19.40;99.90;;;;;;5016284;27;20052;-75
2022/07/11 08:08:55;;;;;;;1.75;0.60;;;19.40;99.90;;;;;;5013052;27;20588;-75
2022/07/11 08:11:20;;;;;;;4.68;0.70;;;19.20;99.90;;;;;;5010964;27;20046;-74
2022/07/11 08:13:46;;;;;;;1.95;0.52;;;18.90;99.90;;;;;;5027996;27;20090;-75
2022/07/11 08:16:12;;;;;;;1.08;0.40;;;18.60;99.90;;;;;;5015301;28;20049;-72
2022/07/11 08:18:37;;;;;;;1.30;0.40;;;18.30;99.90;;;;;;5009966;28;20401;-75
2022/07/11 08:21:03;;;;;;;1.23;0.50;;;18.40;99.90;;;;;;5008987;27;20040;-75
2022/07/11 08:23:30;;;;;;;3.92;0.40;;;18.30;99.90;;;;;;4993688;28;20131;-74
2022/07/11 08:25:56;;;;;;;0.77;0.40;;;18.40;99.90;;;;;;5009738;27;20105;-74
2022/07/11 08:28:25;;;;;;;2.83;0.38;;;18.50;99.90;;;;;;5011428;27;20045;-75
2022/07/11 08:30:51;;;;;;;1.02;0.40;;;18.50;99.90;;;;;;5009934;28;20140;-74
2022/07/11 08:33:17;;;;;;;0.32;0.30;;;18.60;99.90;;;;;;5032651;28;20136;-75
2022/07/11 08:35:43;;;;;;;0.93;0.40;;;18.70;99.90;;;;;;5043583;27;20057;-75
2022/07/11 08:38:08;;;;;;;0.80;0.30;;;18.70;99.90;;;;;;5016793;27;20060;-74
2022/07/11 08:40:34;;;;;;;1.40;0.40;;;18.60;99.90;;;;;;5013007;27;20090;-75
2022/07/11 08:43:04;;;;;;;0.47;0.25;;;18.60;99.90;;;;;;5032648;27;20051;-75
2022/07/11 08:45:31;;;;;;;3.42;0.35;;;18.70;99.90;;;;;;5029726;28;20055;-74
2022/07/11 08:48:00;;;;;;;0.98;0.20;;;19.40;99.90;;;;;;5014983;28;20800;-74
2022/07/11 08:50:27;;;;;;;3.13;0.35;;;19.70;99.90;;;;;;5017727;27;20036;-74
2022/07/11 08:52:58;;;;;;;0.40;0.25;;;19.70;99.90;;;;;;5036046;28;20053;-74
2022/07/11 08:55:24;;;;;;;1.40;0.30;;;19.50;99.90;;;;;;4998276;28;20048;-75
2022/07/11 08:57:51;;;;;;;0.20;0.20;;;19.30;99.90;;;;;;4996826;28;20081;-75
2022/07/11 09:00:16;;;;;;;1.02;0.30;;;19.10;99.90;;;;;;5012844;27;20076;-75
2022/07/11 09:02:44;;;;;;;0.85;0.38;;;18.90;99.90;;;;;;5032612;27;20568;-71
2022/07/11 09:05:10;;;;;;;1.95;0.30;;;18.80;99.90;;;;;;5012988;28;20083;-75
2022/07/11 09:07:47;;;;;;;2.05;0.50;;;18.70;99.90;;;;;;5037642;27;20048;-75
2022/07/11 09:10:17;;;;;;;2.60;0.65;;;18.50;99.90;;;;;;5013332;28;20547;-75
2022/07/11 09:13:06;;;;;;;2.95;0.60;;;18.50;99.90;;;;;;5000554;28;20044;-73
2022/07/11 09:15:44;;;;;;;1.63;0.25;;;18.50;99.90;;;;;;5050649;28;20508;-74
2022/07/11 09:18:39;;;;;;;1.02;0.20;;;18.40;99.90;;;;;;5034476;27;20045;-74
2022/07/11 09:26:46;;;;;;;1.38;0.30;;;18.60;99.90;;;;;;5015445;28;20052;-74
2022/07/11 09:29:20;;;;;;;0.43;0.10;;;18.80;99.90;;;;;;5017005;28;20151;-74
2022/07/11 09:31:47;;;;;;;0.45;0.20;;;18.90;99.90;;;;;;5034494;28;20057;-73
2022/07/11 09:34:18;;;;;;;0.85;0.32;;;18.90;99.90;;;;;;5015720;28;20084;-74
2022/07/11 09:36:55;;;;;;;0.82;0.40;;;18.80;99.90;;;;;;5032568;27;20040;-74
2022/07/11 09:39:23;;;;;;;0.40;0.20;;;18.80;99.90;;;;;;4999912;28;20071;-74
2022/07/11 09:41:51;;;;;;;0.95;0.20;;;18.70;99.90;;;;;;5012904;28;20398;-73
2022/07/11 09:44:27;;;;;;;1.52;0.40;;;18.60;99.90;;;;;;5012668;27;20144;-74
2022/07/11 09:46:53;;;;;;;1.25;0.40;;;18.60;99.90;;;;;;5006670;28;20618;-74
2022/07/11 09:49:33;;;;;;;1.45;0.20;;;18.50;99.90;;;;;;5017373;28;20045;-74
2022/07/11 09:52:10;;;;;;;0.90;0.20;;;18.50;99.90;;;;;;5016559;28;20142;-73
2022/07/11 09:54:56;;;;;;;1.55;0.30;;;18.60;99.90;;;;;;5013179;28;20044;-74
2022/07/11 09:57:40;;;;;;;0.90;0.40;;;18.60;99.90;;;;;;5031260;27;20045;-74
2022/07/11 10:00:11;;;;;;;1.52;0.40;;;18.60;99.90;;;;;;5043545;27;20055;-73
2022/07/11 10:02:37;;;;;;;0.68;0.30;;;18.60;99.90;;;;;;5032157;28;20123;-73
2022/07/11 10:05:04;;;;;;;1.05;0.20;;;18.50;99.90;;;;;;5002819;28;20053;-74
2022/07/11 10:07:30;;;;;;;0.57;0.30;;;18.50;99.90;;;;;;5020195;28;20039;-74
2022/07/11 10:10:00;;;;;;;0.75;0.32;;;18.40;99.90;;;;;;5038479;27;20051;-73
2022/07/11 10:12:27;;;;;;;1.48;0.38;;;18.50;99.90;;;;;;5019447;28;20045;-74
2022/07/11 10:14:56;;;;;;;1.42;0.38;;;18.50;99.90;;;;;;5018291;28;20060;-73
2022/07/11 10:17:54;;;;;;;1.85;0.40;;;18.70;99.90;;;;;;5019590;28;20055;-72
2022/07/11 10:20:29;;;;;;;0.77;0.40;;;18.60;99.90;;;;;;5029391;28;20064;-74
2022/07/11 10:23:14;;;;;;;0.95;0.50;;;18.60;99.90;;;;;;5020611;27;20090;-73
2022/07/11 10:25:55;;;;;;;1.38;0.60;;;18.60;99.90;;;;;;5007602;28;20093;-73
2022/07/11 10:28:23;;;;;;;1.25;0.50;;;18.70;99.90;;;;;;5003986;28;20041;-74
2022/07/11 10:30:55;;;;;;;1.73;0.40;;;18.80;99.90;;;;;;5022488;28;20138;-74
2022/07/11 10:33:21;;;;;;;0.70;0.30;;;18.90;99.90;;;;;;5048250;27;20771;-73
2022/07/11 10:35:50;;;;;;;0.43;0.20;;;19.00;99.90;;;;;;5020808;28;20067;-74
2022/07/11 10:38:16;;;;;;;0.52;0.20;;;19.10;99.90;;;;;;5035049;27;20045;-74
2022/07/11 10:40:56;;;;;;;0.28;0.25;;;19.30;99.90;;;;;;5019691;27;20402;-74
2022/07/11 10:43:22;;;;;;;0.63;0.30;;;19.50;99.90;;;;;;5051002;28;20037;-73
2022/07/11 10:46:02;;;;;;;0.65;0.28;;;19.70;99.90;;;;;;5039970;27;20352;-74
2022/07/11 10:48:30;;;;;;;0.85;0.20;;;19.90;99.90;;;;;;5021997;27;20806;-73
2022/07/11 10:51:17;;;;;;;2.03;0.40;;;20.00;99.90;;;;;;5023678;27;20045;-74
2022/07/11 10:53:48;;;;;;;1.38;0.40;;;20.20;99.90;;;;;;5053136;28;20052;-73
2022/07/11 10:56:50;;;;;;;0.35;0.32;;;20.20;99.90;;;;;;5008178;28;20044;-74
2022/07/11 10:59:18;;;;;;;2.78;0.70;;;20.20;99.90;;;;;;5041722;27;20121;-73
2022/07/11 11:02:05;;;;;;;0.35;0.30;;;20.10;99.90;;;;;;5043339;27;20049;-74
2022/07/11 11:04:58;;;;;;;1.08;0.40;;;20.00;99.90;;;;;;5037217;27;20385;-74
2022/07/11 11:07:35;;;;;;;1.55;0.50;;;19.90;99.90;;;;;;5018166;27;20037;-74
2022/07/11 11:10:23;;;;;;;1.08;0.40;;;19.70;99.90;;;;;;5017877;28;20084;-74
2022/07/11 11:13:04;;;;;;;1.42;0.55;;;19.70;99.90;;;;;;5023851;27;20067;-74
2022/07/11 11:15:52;;;;;;;1.83;0.50;;;19.70;99.90;;;;;;5051574;28;20053;-74
2022/07/11 11:18:24;;;;;;;1.45;0.55;;;19.80;99.90;;;;;;5019176;27;20160;-73
2022/07/11 11:21:02;;;;;;;2.67;0.50;;;19.80;99.90;;;;;;5022132;27;20037;-74
2022/07/11 11:23:33;;;;;;;3.25;0.68;;;19.80;99.90;;;;;;5023732;27;20976;-75
2022/07/11 11:26:17;;;;;;;;;;;19.60;99.90;;;;;;5041128;27;20057;-74
2022/07/11 11:28:59;;;;;;;1.55;0.70;;;19.50;99.90;;;;;;5018994;28;20341;-73
2022/07/11 11:31:26;;;;;;;1.65;0.60;;;19.40;99.90;;;;;;5050910;27;20626;-74
2022/07/11 11:33:52;;;;;;;0.95;0.65;;;19.30;99.90;;;;;;5020268;28;20061;-74
2022/07/11 11:36:21;;;;;;;1.13;0.50;;;19.30;99.90;;;;;;5036563;27;20040;-73
2022/07/11 11:38:47;;;;;;;2.75;0.60;;;19.30;99.90;;;;;;5035291;27;20160;-74
2022/07/11 11:41:24;;;;;;;2.78;0.68;;;19.30;99.90;;;;;;5052477;27;20513;-73
2022/07/11 11:43:52;;;;;;;1.08;0.68;;;19.30;99.90;;;;;;5058482;27;20049;-74
2022/07/11 11:46:17;;;;;;;1.40;0.60;;;19.30;99.90;;;;;;5002557;28;20427;-74
2022/07/11 11:48:46;;;;;;;0.98;0.40;;;19.30;99.90;;;;;;5017301;28;21686;-73
2022/07/11 11:51:17;;;;;;;1.40;0.50;;;19.40;99.90;;;;;;5051442;27;20049;-73
2022/07/11 11:53:48;;;;;;;1.35;0.60;;;19.40;99.90;;;;;;5004730;28;20044;-74
2022/07/11 11:56:28;;;;;;;2.60;0.60;;;19.40;99.90;;;;;;5016811;27;20049;-75
2022/07/11 11:58:57;;;;;;;1.83;0.50;;;19.40;99.90;;;;;;5040804;27;20681;-74
2022/07/11 12:01:28;;;;;;;0.73;0.50;;;19.50;99.90;;;;;;5016551;27;20041;-74
2022/07/11 12:04:01;;;;;;;1.00;0.55;;;19.50;99.90;;;;;;5020510;27;20041;-74
2022/07/11 12:06:30;;;;;;;1.42;0.70;;;19.60;99.90;;;;;;5022959;27;20491;-73
2022/07/11 12:08:59;;;;;;;1.52;0.50;;;19.60;99.90;;;;;;5013541;27;20086;-74
2022/07/11 12:11:25;;;;;;;2.08;0.50;;;19.60;99.90;;;;;;5035856;27;20143;-74
2022/07/11 12:13:58;;;;;;;2.70;0.70;;;19.50;99.90;;;;;;5036428;27;20139;-74
2022/07/11 12:16:43;;;;;;;1.35;0.65;;;19.50;99.90;;;;;;5032731;28;20048;-74
2022/07/11 12:19:21;;;;;;;1.25;0.50;;;19.50;99.90;;;;;;5020115;28;20352;-74
2022/07/11 12:21:55;;;;;;;1.55;0.60;;;19.60;99.90;;;;;;5056295;27;20565;-74
2022/07/11 12:24:28;;;;;;;1.65;0.52;;;19.60;99.90;;;;;;5036121;27;20069;-75
2022/07/11 12:26:55;;;;;;;3.97;0.60;;;19.70;99.90;;;;;;5036284;28;20037;-74
2022/07/11 12:29:24;;;;;;;2.30;0.57;;;19.80;99.90;;;;;;5034171;27;20177;-74
2022/07/11 12:32:20;;;;;;;2.03;0.40;;;19.80;99.90;;;;;;5018579;28;21504;-74
2022/07/11 12:34:49;;;;;;;1.90;0.60;;;19.80;99.90;;;;;;5019846;27;20519;-74
2022/07/11 12:37:19;;;;;;;1.45;0.63;;;19.90;99.90;;;;;;5017849;28;20620;-75
2022/07/11 12:39:54;;;;;;;1.88;0.47;;;19.80;99.90;;;;;;5016684;28;20595;-74
2022/07/11 12:42:29;;;;;;;2.40;0.50;;;19.70;99.90;;;;;;5000727;28;20048;-74
2022/07/11 12:45:13;;;;;;;1.95;0.63;;;19.60;99.90;;;;;;5027871;28;20050;-74
2022/07/11 12:47:40;;;;;;;5.78;1.27;;;19.50;99.90;;;;;;5015654;27;20351;-75
2022/07/11 12:50:16;;;;;;;2.42;0.88;;;19.50;99.90;;;;;;5034251;28;20037;-74
2022/07/11 12:52:50;;;;;;;2.58;0.40;;;19.50;99.90;;;;;;5031020;27;20049;-75
2022/07/11 12:55:23;;;;;;;1.27;0.70;;;19.60;99.90;;;;;;5033781;27;20063;-75
2022/07/11 12:58:18;;;;;;;0.40;0.40;;;19.60;99.90;;;;;;5015257;27;20381;-75
2022/07/11 13:00:59;;;;;;;0.35;0.35;;;19.60;99.90;;;;;;5012446;28;20057;-75
2022/07/11 13:03:33;;;;;;;2.22;0.65;;;19.60;99.90;;;;;;5012001;28;20084;-75